createdAt,value
2023-01-08T00:01:48.328Z,2.80
2023-01-08T00:04:18.052Z,2.30
2023-01-08T00:06:47.442Z,3.22
2023-01-08T00:09:16.697Z,2.00
2023-01-08T00:11:45.998Z,2.22
2023-01-08T00:14:15.237Z,2.50
2023-01-08T00:16:44.658Z,2.05
2023-01-08T00:19:17.401Z,2.30
2023-01-08T00:21:46.672Z,1.90
2023-01-08T00:24:16.015Z,2.20
2023-01-08T00:26:45.291Z,2.47
2023-01-08T00:29:14.944Z,2.47
2023-01-08T00:31:45.415Z,2.63
2023-01-08T00:34:14.689Z,2.63
2023-01-08T00:36:43.908Z,2.35
2023-01-08T00:39:13.138Z,2.45
2023-01-08T00:41:45.520Z,2.20
2023-01-08T00:46:43.938Z,2.38
2023-01-08T00:49:13.172Z,2.50
2023-01-08T00:51:42.427Z,2.38
2023-01-08T00:54:12.303Z,2.42
2023-01-08T00:56:41.523Z,2.20
2023-01-08T00:59:10.775Z,2.20
2023-01-08T01:01:40.474Z,2.22
2023-01-08T01:04:09.819Z,2.67
2023-01-08T01:06:39.034Z,1.85
2023-01-08T01:09:08.269Z,2.63
2023-01-08T01:11:37.797Z,2.63
2023-01-08T01:14:06.994Z,2.80
2023-01-08T01:16:36.570Z,2.50
2023-01-08T01:19:05.865Z,2.30
2023-01-08T01:21:35.516Z,2.13
2023-01-08T01:24:05.730Z,3.22
2023-01-08T01:26:35.256Z,2.40
2023-01-08T01:29:04.680Z,2.20
2023-01-08T01:31:34.530Z,2.90
2023-01-08T01:34:03.732Z,2.20
2023-01-08T01:36:32.913Z,2.17
2023-01-08T01:39:02.137Z,2.60
2023-01-08T01:41:35.963Z,2.60
2023-01-08T01:44:23.842Z,2.55
2023-01-08T01:46:53.100Z,3.17
2023-01-08T01:49:24.223Z,2.50
2023-01-08T01:51:56.035Z,2.63
2023-01-08T01:54:25.511Z,2.63
2023-01-08T01:56:54.847Z,2.28
2023-01-08T01:59:24.100Z,2.35
2023-01-08T02:01:54.058Z,2.33
2023-01-08T02:04:23.491Z,2.63
2023-01-08T02:07:25.293Z,2.25
2023-01-08T02:10:03.802Z,2.58
2023-01-08T02:12:42.189Z,2.35
2023-01-08T02:15:27.445Z,2.75
2023-01-08T02:17:56.652Z,2.80
2023-01-08T02:20:33.956Z,2.92
2023-01-08T02:23:10.056Z,2.50
2023-01-08T02:25:58.084Z,2.42
2023-01-08T02:28:28.767Z,2.88
2023-01-08T02:30:58.237Z,2.83
2023-01-08T02:33:30.248Z,2.95
2023-01-08T02:36:24.106Z,2.50
2023-01-08T02:39:02.263Z,2.55
2023-01-08T02:41:42.070Z,2.63
2023-01-08T02:44:12.507Z,2.72
2023-01-08T02:46:42.738Z,1.05
2023-01-08T02:49:15.277Z,1.10
2023-01-08T02:51:47.811Z,0.85
2023-01-08T02:54:19.222Z,1.05
2023-01-08T02:56:50.869Z,1.10
2023-01-08T02:59:21.815Z,1.25
2023-01-08T03:01:51.604Z,1.15
2023-01-08T03:04:22.552Z,1.10
2023-01-08T03:06:52.243Z,1.20
2023-01-08T03:09:21.725Z,1.02
2023-01-08T03:11:56.282Z,1.38
2023-01-08T03:14:31.032Z,1.42
2023-01-08T03:17:18.663Z,1.10
2023-01-08T03:19:51.340Z,1.08
2023-01-08T03:22:20.973Z,1.20
2023-01-08T03:24:52.052Z,0.85
2023-01-08T03:27:22.763Z,1.08
2023-01-08T03:29:54.101Z,1.02
2023-01-08T03:32:24.969Z,0.80
2023-01-08T03:34:55.798Z,0.93
2023-01-08T03:37:27.820Z,1.05
2023-01-08T03:40:01.971Z,1.20
2023-01-08T03:42:33.360Z,1.02
2023-01-08T03:45:03.168Z,1.70
2023-01-08T03:47:32.977Z,1.00
2023-01-08T03:50:06.586Z,1.15
2023-01-08T03:52:35.917Z,1.05
2023-01-08T03:55:05.472Z,1.08
2023-01-08T03:57:34.711Z,1.40
2023-01-08T04:00:03.933Z,1.10
2023-01-08T04:02:34.474Z,1.40
2023-01-08T04:05:03.811Z,0.82
2023-01-08T04:07:33.052Z,1.10
2023-01-08T04:10:02.262Z,1.00
2023-01-08T04:12:31.463Z,0.95
2023-01-08T04:15:00.673Z,1.27
2023-01-08T04:17:29.935Z,1.33
2023-01-08T04:19:59.121Z,1.00
2023-01-08T04:22:28.350Z,0.95
2023-01-08T04:24:57.564Z,1.02
2023-01-08T04:27:26.811Z,1.00
2023-01-08T04:29:56.114Z,1.45
2023-01-08T04:32:25.399Z,1.20
2023-01-08T04:34:54.605Z,1.52
2023-01-08T04:37:23.927Z,1.00
2023-01-08T04:39:53.193Z,1.10
2023-01-08T04:42:22.446Z,1.10
2023-01-08T04:44:51.675Z,0.90
2023-01-08T04:47:20.874Z,0.90
2023-01-08T04:49:50.097Z,1.13
2023-01-08T04:52:19.313Z,1.17
2023-01-08T04:54:48.534Z,1.63
2023-01-08T04:57:17.744Z,1.50
2023-01-08T04:59:46.996Z,1.05
2023-01-08T05:02:16.415Z,2.30
2023-01-08T05:04:45.760Z,1.55
2023-01-08T05:07:15.035Z,1.23
2023-01-08T05:09:44.294Z,1.95
2023-01-08T05:12:13.528Z,1.20
2023-01-08T05:14:42.760Z,1.58
2023-01-08T05:17:11.985Z,1.60
2023-01-08T05:19:41.203Z,1.73
2023-01-08T05:22:10.475Z,1.60
2023-01-08T05:24:39.692Z,2.22
2023-01-08T05:27:08.962Z,1.80
2023-01-08T05:29:38.241Z,1.90
2023-01-08T05:32:09.227Z,2.67
2023-01-08T05:34:38.437Z,2.22
2023-01-08T05:37:07.672Z,2.28
2023-01-08T05:39:36.932Z,1.75
2023-01-08T05:42:06.385Z,1.98
2023-01-08T05:44:35.617Z,2.08
2023-01-08T05:47:04.881Z,1.92
2023-01-08T05:49:34.086Z,2.05
2023-01-08T05:52:03.393Z,2.10
2023-01-08T05:54:32.585Z,2.33
2023-01-08T05:57:01.799Z,1.80
2023-01-08T05:59:31.062Z,1.90
2023-01-08T06:02:00.272Z,1.92
2023-01-08T06:04:29.606Z,1.95
2023-01-08T06:06:58.910Z,1.50
2023-01-08T06:09:28.100Z,1.48
2023-01-08T06:11:58.157Z,1.42
2023-01-08T06:14:27.487Z,1.17
2023-01-08T06:16:56.726Z,1.42
2023-01-08T06:19:25.960Z,1.30
2023-01-08T06:21:55.264Z,1.58
2023-01-08T06:24:24.517Z,2.10
2023-01-08T06:26:53.779Z,1.88
2023-01-08T06:29:23.069Z,2.05
2023-01-08T06:31:52.368Z,1.58
2023-01-08T06:34:21.598Z,2.08
2023-01-08T06:36:51.412Z,1.80
2023-01-08T06:39:20.673Z,1.63
2023-01-08T06:41:49.915Z,1.70
2023-01-08T06:44:19.145Z,1.40
2023-01-08T06:46:48.769Z,1.65
2023-01-08T06:49:18.017Z,1.60
2023-01-08T06:51:47.324Z,1.13
2023-01-08T06:54:16.851Z,1.42
2023-01-08T06:56:53.599Z,1.70
2023-01-08T06:59:23.861Z,1.30
2023-01-08T07:01:53.280Z,1.08
2023-01-08T07:04:22.710Z,0.98
2023-01-08T07:06:51.990Z,1.20
2023-01-08T07:09:21.210Z,1.05
2023-01-08T07:11:50.494Z,1.48
2023-01-08T07:14:19.717Z,1.25
2023-01-08T07:16:49.164Z,2.15
2023-01-08T07:19:18.375Z,1.13
2023-01-08T07:21:47.603Z,0.90
2023-01-08T07:24:16.890Z,1.08
2023-01-08T07:26:46.116Z,1.38
2023-01-08T07:29:15.332Z,1.30
2023-01-08T07:31:44.612Z,1.23
2023-01-08T07:34:15.331Z,0.93
2023-01-08T07:36:44.642Z,1.40
2023-01-08T07:39:13.940Z,1.88
2023-01-08T07:41:44.453Z,1.38
2023-01-08T07:44:14.652Z,1.33
2023-01-08T07:46:43.929Z,1.30
2023-01-08T07:49:13.247Z,1.40
2023-01-08T07:51:42.472Z,0.90
2023-01-08T07:54:11.794Z,1.33
2023-01-08T07:56:41.032Z,1.10
2023-01-08T07:59:10.262Z,1.00
2023-01-08T08:01:39.568Z,1.02
2023-01-08T08:04:08.829Z,1.95
2023-01-08T08:06:38.057Z,1.20
2023-01-08T08:09:07.352Z,1.40
2023-01-08T08:11:38.513Z,1.25
2023-01-08T08:14:07.780Z,1.35
2023-01-08T08:16:37.150Z,1.48
2023-01-08T08:19:06.643Z,1.10
2023-01-08T08:21:35.860Z,1.38
2023-01-08T08:24:05.050Z,1.50
2023-01-08T08:26:34.251Z,1.27
2023-01-08T08:29:03.437Z,1.40
2023-01-08T08:31:32.712Z,1.75
2023-01-08T08:34:01.972Z,1.60
2023-01-08T08:36:31.836Z,1.42
2023-01-08T08:39:01.018Z,1.63
2023-01-08T08:41:30.306Z,1.42
2023-01-08T08:43:59.484Z,1.85
2023-01-08T08:46:28.728Z,1.50
2023-01-08T08:48:57.951Z,1.10
2023-01-08T08:51:27.189Z,1.77
2023-01-08T08:53:56.415Z,1.50
2023-01-08T08:56:25.650Z,1.60
2023-01-08T08:58:54.924Z,1.80
2023-01-08T09:01:24.258Z,1.35
2023-01-08T09:03:53.552Z,1.40
2023-01-08T09:06:23.979Z,1.05
2023-01-08T09:08:55.094Z,1.30
2023-01-08T09:11:24.397Z,1.60
2023-01-08T09:13:53.638Z,1.20
2023-01-08T09:16:22.936Z,1.30
2023-01-08T09:18:52.342Z,1.27
2023-01-08T09:21:21.593Z,1.27
2023-01-08T09:23:51.419Z,1.42
2023-01-08T09:26:20.621Z,1.70
2023-01-08T09:28:49.872Z,1.23
2023-01-08T09:31:19.165Z,1.67
2023-01-08T09:33:50.330Z,1.73
2023-01-08T09:36:20.089Z,2.05
2023-01-08T09:38:49.378Z,2.50
2023-01-08T09:41:18.627Z,2.30
2023-01-08T09:43:49.096Z,2.28
2023-01-08T09:46:18.806Z,1.90
2023-01-08T09:48:48.943Z,2.00
2023-01-08T09:51:19.235Z,1.70
2023-01-08T09:53:48.880Z,1.48
2023-01-08T09:56:19.234Z,2.05
2023-01-08T09:58:53.239Z,2.30
2023-01-08T10:01:24.246Z,1.60
2023-01-08T10:03:55.549Z,2.42
2023-01-08T10:06:26.383Z,1.60
2023-01-08T10:08:55.719Z,1.70
2023-01-08T10:11:25.408Z,1.77
2023-01-08T10:13:58.730Z,1.58
2023-01-08T10:16:30.875Z,1.52
2023-01-08T10:19:03.271Z,1.30
2023-01-08T10:21:34.302Z,1.70
2023-01-08T10:24:03.559Z,1.90
2023-01-08T10:26:36.587Z,1.70
2023-01-08T10:29:12.149Z,1.55
2023-01-08T10:31:47.321Z,1.90
2023-01-08T10:34:23.719Z,1.95
2023-01-08T10:36:53.531Z,1.88
2023-01-08T10:39:25.727Z,2.45
2023-01-08T10:41:56.484Z,1.20
2023-01-08T10:44:27.257Z,1.67
2023-01-08T10:46:57.688Z,1.58
2023-01-08T10:49:30.556Z,1.60
2023-01-08T10:52:00.109Z,1.42
2023-01-08T10:54:32.467Z,1.77
2023-01-08T10:57:02.624Z,2.58
2023-01-08T10:59:32.098Z,2.15
2023-01-08T11:02:02.360Z,1.65
2023-01-08T11:04:36.709Z,1.80
2023-01-08T11:07:07.924Z,1.33
2023-01-08T11:09:41.997Z,1.20
2023-01-08T11:12:27.899Z,1.10
2023-01-08T11:14:57.249Z,1.40
2023-01-08T11:17:29.971Z,1.42
2023-01-08T11:20:09.026Z,2.42
2023-01-08T11:22:38.235Z,1.42
2023-01-08T11:25:13.913Z,0.80
2023-01-08T11:27:45.315Z,1.38
2023-01-08T11:30:15.909Z,1.45
2023-01-08T11:32:54.957Z,1.00
2023-01-08T11:35:28.543Z,0.95
2023-01-08T11:38:00.075Z,1.10
2023-01-08T11:40:33.804Z,1.00
2023-01-08T11:43:06.183Z,1.10
2023-01-08T11:48:16.924Z,1.00
2023-01-08T11:50:52.481Z,0.90
2023-01-08T11:53:24.745Z,1.00
2023-01-08T11:56:07.624Z,1.00
2023-01-08T11:58:36.856Z,1.33
2023-01-08T12:01:06.106Z,1.10
2023-01-08T12:03:49.724Z,0.90
2023-01-08T12:06:24.974Z,0.70
2023-01-08T12:09:12.589Z,0.98
2023-01-08T12:11:46.933Z,1.20
2023-01-08T12:14:18.983Z,0.90
2023-01-08T12:16:48.225Z,1.35
2023-01-08T12:19:20.561Z,1.38
2023-01-08T12:24:37.642Z,1.13
2023-01-08T12:27:16.381Z,1.10
2023-01-08T12:30:04.412Z,1.10
2023-01-08T12:32:37.985Z,0.98
2023-01-08T12:35:25.677Z,1.13
2023-01-08T12:38:00.585Z,1.20
2023-01-08T12:40:31.858Z,1.05
2023-01-08T12:43:05.038Z,1.30
2023-01-08T12:45:41.823Z,1.35
2023-01-08T12:48:11.938Z,1.58
2023-01-08T12:50:47.206Z,1.40
2023-01-08T12:53:21.688Z,1.30
2023-01-08T12:56:01.055Z,1.45
2023-01-08T12:58:48.398Z,1.05
2023-01-08T13:04:15.399Z,2.00
2023-01-08T13:07:14.409Z,1.58
2023-01-08T13:09:43.711Z,1.10
2023-01-08T13:12:15.826Z,1.75
2023-01-08T13:14:46.301Z,1.30
2023-01-08T13:17:23.549Z,1.15
2023-01-08T13:20:00.987Z,1.20
2023-01-08T13:22:38.708Z,1.23
2023-01-08T13:25:23.675Z,1.17
2023-01-08T13:28:00.860Z,1.10
2023-01-08T13:30:38.594Z,1.00
2023-01-08T13:33:26.038Z,1.17
2023-01-08T13:36:09.989Z,0.93
2023-01-08T13:38:39.258Z,1.40
2023-01-08T13:41:08.613Z,1.25
2023-01-08T13:43:48.353Z,1.70
2023-01-08T13:46:22.580Z,1.23
2023-01-08T13:49:09.965Z,1.08
2023-01-08T13:54:11.243Z,0.85
2023-01-08T13:56:40.555Z,1.25
2023-01-08T13:59:09.804Z,1.17
2023-01-08T14:01:39.100Z,1.35
2023-01-08T14:04:08.602Z,1.15
2023-01-08T14:06:37.813Z,1.27
2023-01-08T14:09:07.911Z,1.08
2023-01-08T14:11:47.549Z,1.27
2023-01-08T14:14:18.493Z,1.08
2023-01-08T14:16:49.294Z,1.52
2023-01-08T14:19:20.546Z,1.25
2023-01-08T14:22:01.809Z,2.08
2023-01-08T14:24:31.218Z,1.20
2023-01-08T14:27:01.937Z,1.27
2023-01-08T14:29:34.739Z,1.33
2023-01-08T14:32:04.282Z,0.98
2023-01-08T14:34:34.615Z,1.20
2023-01-08T14:37:05.135Z,1.17
2023-01-08T14:39:34.393Z,1.10
2023-01-08T14:42:17.565Z,1.20
2023-01-08T14:44:46.888Z,1.27
2023-01-08T14:47:20.065Z,0.90
2023-01-08T14:49:57.877Z,1.45
2023-01-08T14:52:27.163Z,1.30
2023-01-08T14:54:59.878Z,1.50
2023-01-08T14:57:30.141Z,1.23
2023-01-08T15:00:00.699Z,1.25
2023-01-08T15:02:37.650Z,1.33
2023-01-08T15:05:16.453Z,1.27
2023-01-08T15:07:46.996Z,1.55
2023-01-08T15:10:36.122Z,1.40
2023-01-08T15:13:08.671Z,1.65
2023-01-08T15:15:40.423Z,1.23
2023-01-08T15:18:10.680Z,1.88
2023-01-08T15:20:39.969Z,1.20
2023-01-08T15:23:09.238Z,1.90
2023-01-08T15:25:38.543Z,1.55
2023-01-08T15:28:07.947Z,1.42
2023-01-08T15:30:42.219Z,1.30
2023-01-08T15:33:31.768Z,1.20
2023-01-08T15:36:01.274Z,1.52
2023-01-08T15:38:30.482Z,1.30
2023-01-08T15:40:59.740Z,1.13
2023-01-08T15:43:26.519Z,1.15
2023-01-08T15:45:55.889Z,1.73
2023-01-08T15:48:28.320Z,1.88
2023-01-08T15:53:27.590Z,1.67
2023-01-08T15:55:56.936Z,1.40
2023-01-08T15:58:26.216Z,1.92
2023-01-08T16:00:55.614Z,1.80
2023-01-08T16:03:25.931Z,2.00
2023-01-08T16:05:55.734Z,1.55
2023-01-08T16:08:25.143Z,1.35
2023-01-08T16:10:57.103Z,1.63
2023-01-08T16:13:26.336Z,1.20
2023-01-08T16:15:55.926Z,1.30
2023-01-08T16:18:25.930Z,1.77
2023-01-08T16:21:02.067Z,1.50
2023-01-08T16:23:31.360Z,1.40
2023-01-08T16:26:00.626Z,2.00
2023-01-08T16:28:29.899Z,3.00
2023-01-08T16:30:59.237Z,2.38
2023-01-08T16:33:28.466Z,1.92
2023-01-08T16:36:01.525Z,1.20
2023-01-08T16:38:33.323Z,1.65
2023-01-08T16:41:02.771Z,1.88
2023-01-08T16:43:32.846Z,1.33
2023-01-08T16:46:04.373Z,1.60
2023-01-08T16:48:33.638Z,1.53
2023-01-08T16:51:06.977Z,1.35
2023-01-08T16:53:38.833Z,1.25
2023-01-08T16:56:08.528Z,1.88
2023-01-08T16:58:38.202Z,1.35
2023-01-08T17:01:12.363Z,1.77
2023-01-08T17:03:42.110Z,1.67
2023-01-08T17:06:12.672Z,2.55
2023-01-08T17:08:43.121Z,1.40
2023-01-08T17:11:13.258Z,1.83
2023-01-08T17:13:42.649Z,1.63
2023-01-08T17:16:13.458Z,1.63
2023-01-08T17:18:43.016Z,1.80
2023-01-08T17:21:12.969Z,1.80
2023-01-08T17:23:42.552Z,2.25
2023-01-08T17:26:12.611Z,1.95
2023-01-08T17:28:41.925Z,1.95
2023-01-08T17:31:13.047Z,1.80
2023-01-08T17:33:42.318Z,1.42
2023-01-08T17:36:15.364Z,2.17
2023-01-08T17:38:46.884Z,1.77
2023-01-08T17:41:37.862Z,1.50
2023-01-08T17:44:09.065Z,2.10
2023-01-08T17:46:39.829Z,1.88
2023-01-08T17:49:09.225Z,2.05
2023-01-08T17:51:38.756Z,1.80
2023-01-08T17:54:08.028Z,1.30
2023-01-08T17:56:37.340Z,1.92
2023-01-08T17:59:07.062Z,1.42
2023-01-08T18:01:36.827Z,1.95
2023-01-08T18:04:06.200Z,1.60
2023-01-08T18:06:36.069Z,1.70
2023-01-08T18:09:05.833Z,1.38
2023-01-08T18:11:35.393Z,1.35
2023-01-08T18:14:05.240Z,1.65
2023-01-08T18:16:34.771Z,1.45
2023-01-08T18:19:04.249Z,1.52
2023-01-08T18:21:33.486Z,1.75
2023-01-08T18:24:02.698Z,1.80
2023-01-08T18:26:32.062Z,1.90
2023-01-08T18:29:01.323Z,2.13
2023-01-08T18:31:30.556Z,1.67
2023-01-08T18:34:00.072Z,1.95
2023-01-08T18:36:29.651Z,1.70
2023-01-08T18:38:58.918Z,1.95
2023-01-08T18:41:40.413Z,1.80
2023-01-08T18:44:10.211Z,2.00
2023-01-08T18:46:39.573Z,1.65
2023-01-08T18:49:09.188Z,1.90
2023-01-08T18:51:38.467Z,1.73
2023-01-08T18:54:08.422Z,1.77
2023-01-08T18:56:38.419Z,2.50
2023-01-08T18:59:09.199Z,3.05
2023-01-08T19:01:38.727Z,2.65
2023-01-08T19:04:08.253Z,3.08
2023-01-08T19:06:37.637Z,2.60
2023-01-08T19:09:06.884Z,1.95
2023-01-08T19:11:36.134Z,1.80
2023-01-08T19:14:05.354Z,1.85
2023-01-08T19:16:34.588Z,1.63
2023-01-08T19:19:03.836Z,1.92
2023-01-08T19:21:33.119Z,2.17
2023-01-08T19:24:02.351Z,2.08
2023-01-08T19:26:31.549Z,1.83
2023-01-08T19:29:00.761Z,1.70
2023-01-08T19:31:29.999Z,1.58
2023-01-08T19:34:02.904Z,1.73
2023-01-08T19:36:33.644Z,2.88
2023-01-08T19:39:04.881Z,1.90
2023-01-08T19:41:46.580Z,1.98
2023-01-08T19:44:15.908Z,1.90
2023-01-08T19:46:45.139Z,1.58
2023-01-08T19:49:14.422Z,1.88
2023-01-08T19:51:43.641Z,1.88
2023-01-08T19:54:13.965Z,1.70
2023-01-08T19:56:43.175Z,2.00
2023-01-08T19:59:13.302Z,2.25
2023-01-08T20:01:42.970Z,2.10
2023-01-08T20:04:12.676Z,2.20
2023-01-08T20:06:41.929Z,2.45
2023-01-08T20:09:11.531Z,2.20
2023-01-08T20:11:40.762Z,1.90
2023-01-08T20:14:10.169Z,2.33
2023-01-08T20:16:39.556Z,2.25
2023-01-08T20:19:08.927Z,2.10
2023-01-08T20:21:38.218Z,2.03
2023-01-08T20:24:09.901Z,2.30
2023-01-08T20:26:39.601Z,2.25
2023-01-08T20:29:10.613Z,2.00
2023-01-08T20:31:40.204Z,2.15
2023-01-08T20:34:11.796Z,2.10
2023-01-08T20:36:41.158Z,1.93
2023-01-08T20:39:12.385Z,2.17
2023-01-08T20:41:46.614Z,2.00
2023-01-08T20:44:24.876Z,1.60
2023-01-08T20:46:54.159Z,2.00
2023-01-08T20:49:25.299Z,2.20
2023-01-08T20:51:59.206Z,1.75
2023-01-08T20:54:29.202Z,1.90
2023-01-08T20:56:59.576Z,2.78
2023-01-08T20:59:29.563Z,2.05
2023-01-08T21:01:58.841Z,2.13
2023-01-08T21:04:28.460Z,2.00
2023-01-08T21:06:57.683Z,1.92
2023-01-08T21:09:26.946Z,2.20
2023-01-08T21:11:56.164Z,1.67
2023-01-08T21:14:25.377Z,1.77
2023-01-08T21:16:54.630Z,2.10
2023-01-08T21:19:24.159Z,2.05
2023-01-08T21:21:53.373Z,2.25
2023-01-08T21:24:22.753Z,2.55
2023-01-08T21:26:52.052Z,1.80
2023-01-08T21:29:23.260Z,2.25
2023-01-08T21:31:52.665Z,1.67
2023-01-08T21:34:22.192Z,1.80
2023-01-08T21:36:51.492Z,1.70
2023-01-08T21:39:20.760Z,2.00
2023-01-08T21:42:02.504Z,1.83
2023-01-08T21:44:44.237Z,2.33
2023-01-08T21:47:18.041Z,2.08
2023-01-08T21:49:48.091Z,2.00
2023-01-08T21:52:30.098Z,1.80
2023-01-08T21:54:59.514Z,4.00
2023-01-08T21:57:29.770Z,4.10
2023-01-08T21:59:59.201Z,4.25
2023-01-08T22:02:28.651Z,4.60
2023-01-08T22:04:58.624Z,4.78
2023-01-08T22:07:28.686Z,4.13
2023-01-08T22:10:00.548Z,2.80
2023-01-08T22:12:30.046Z,2.38
2023-01-08T22:14:59.678Z,2.22
2023-01-08T22:17:29.477Z,2.28
2023-01-08T22:20:00.367Z,2.40
2023-01-08T22:22:29.676Z,2.05
2023-01-08T22:24:58.886Z,2.30
2023-01-08T22:27:28.515Z,2.15
2023-01-08T22:29:57.718Z,2.10
2023-01-08T22:32:28.461Z,2.10
2023-01-08T22:34:57.692Z,1.65
2023-01-08T22:37:26.913Z,1.90
2023-01-08T22:39:56.319Z,2.00
2023-01-08T22:42:26.322Z,1.83
2023-01-08T22:44:55.620Z,2.05
2023-01-08T22:47:24.863Z,1.90
2023-01-08T22:49:54.151Z,1.52
2023-01-08T22:52:23.419Z,1.30
2023-01-08T22:54:55.311Z,1.75
2023-01-08T22:57:24.587Z,1.33
2023-01-08T22:59:54.560Z,1.60
2023-01-08T23:02:24.776Z,1.58
2023-01-08T23:04:54.510Z,1.90
2023-01-08T23:07:23.984Z,1.40
2023-01-08T23:09:53.286Z,1.80
2023-01-08T23:12:23.491Z,1.75
2023-01-08T23:14:52.737Z,1.58
2023-01-08T23:17:21.956Z,1.60
2023-01-08T23:19:51.192Z,1.65
2023-01-08T23:22:20.421Z,1.83
2023-01-08T23:24:49.643Z,1.40
2023-01-08T23:27:18.847Z,1.40
2023-01-08T23:29:48.135Z,1.13
2023-01-08T23:32:17.372Z,1.13
2023-01-08T23:34:46.631Z,1.45
2023-01-08T23:37:16.008Z,1.45
2023-01-08T23:39:45.191Z,1.13
2023-01-08T23:42:14.427Z,1.23
2023-01-08T23:44:43.711Z,1.20
2023-01-08T23:47:12.953Z,1.25
2023-01-08T23:49:42.226Z,1.08
2023-01-08T23:52:11.499Z,0.93
2023-01-08T23:54:40.748Z,0.73
2023-01-08T23:57:09.970Z,0.70
2023-01-08T23:59:42.412Z,0.90
